createdAt,value
2023-01-25T00:00:44.209Z,6.12
2023-01-25T00:05:47.380Z,5.77
2023-01-25T00:10:52.681Z,5.85
2023-01-25T00:16:02.831Z,5.94
2023-01-25T00:21:13.993Z,5.84
2023-01-25T00:26:17.625Z,5.80
2023-01-25T00:31:33.083Z,5.71
2023-01-25T00:36:42.653Z,5.57
2023-01-25T00:41:45.931Z,5.52
2023-01-25T00:46:50.964Z,5.51
2023-01-25T00:51:55.871Z,5.50
2023-01-25T00:56:59.043Z,5.48
2023-01-25T01:02:04.121Z,5.43
2023-01-25T01:07:07.386Z,5.45
2023-01-25T01:12:10.603Z,5.43
2023-01-25T01:17:15.170Z,5.42
2023-01-25T01:22:18.324Z,5.41
2023-01-25T01:27:21.455Z,5.34
2023-01-25T01:32:26.280Z,5.34
2023-01-25T01:37:29.530Z,5.27
2023-01-25T01:42:32.634Z,5.27
2023-01-25T01:47:46.029Z,5.25
2023-01-25T01:52:50.102Z,5.24
2023-01-25T01:57:58.089Z,5.28
2023-01-25T02:03:03.261Z,5.20
2023-01-25T02:08:07.985Z,5.20
2023-01-25T02:13:11.773Z,5.19
2023-01-25T02:18:17.308Z,5.14
2023-01-25T02:23:27.796Z,5.19
2023-01-25T02:28:36.467Z,5.19
2023-01-25T02:33:39.621Z,5.14
2023-01-25T02:38:46.732Z,5.19
2023-01-25T02:43:51.705Z,5.17
2023-01-25T02:48:55.648Z,5.24
2023-01-25T02:53:59.055Z,5.24
2023-01-25T02:59:05.823Z,5.25
2023-01-25T03:04:09.861Z,5.33
2023-01-25T03:09:13.716Z,5.31
2023-01-25T03:14:18.444Z,5.43
2023-01-25T03:19:21.607Z,5.44
2023-01-25T03:24:24.789Z,5.47
2023-01-25T03:29:29.363Z,5.46
2023-01-25T03:34:32.514Z,5.46
2023-01-25T03:39:35.695Z,5.51
2023-01-25T03:44:40.253Z,5.45
2023-01-25T03:49:43.542Z,5.57
2023-01-25T03:54:48.050Z,5.49
2023-01-25T03:59:52.568Z,5.47
2023-01-25T04:04:55.714Z,5.43
2023-01-25T04:09:58.829Z,5.34
2023-01-25T04:15:03.416Z,5.37
2023-01-25T04:20:07.782Z,5.32
2023-01-25T04:25:11.761Z,5.31
2023-01-25T04:30:17.036Z,5.28
2023-01-25T04:35:20.987Z,5.32
2023-01-25T04:40:24.131Z,5.38
2023-01-25T04:45:28.709Z,5.48
2023-01-25T04:50:32.411Z,5.48
2023-01-25T04:55:35.624Z,5.45
2023-01-25T05:00:40.221Z,5.50
2023-01-25T05:05:47.516Z,5.57
2023-01-25T05:10:50.694Z,5.54
2023-01-25T05:15:57.414Z,5.45
2023-01-25T05:21:00.554Z,5.48
2023-01-25T05:26:32.480Z,5.47
2023-01-25T05:31:37.138Z,5.40
2023-01-25T05:36:40.336Z,5.37
2023-01-25T05:41:43.495Z,5.35
2023-01-25T05:46:48.303Z,5.41
2023-01-25T05:51:51.507Z,5.42
2023-01-25T05:56:54.628Z,5.44
2023-01-25T06:01:59.204Z,5.41
2023-01-25T06:07:02.348Z,5.43
2023-01-25T06:12:06.894Z,5.45
2023-01-25T06:17:11.450Z,5.34
2023-01-25T06:22:14.567Z,5.31
2023-01-25T06:27:17.730Z,5.39
2023-01-25T06:32:22.325Z,5.35
2023-01-25T06:37:25.476Z,5.38
2023-01-25T06:42:28.634Z,5.38
2023-01-25T06:47:33.171Z,5.37
2023-01-25T06:52:37.052Z,5.40
2023-01-25T06:57:40.201Z,5.39
2023-01-25T07:02:44.871Z,5.37
2023-01-25T07:07:48.542Z,5.33
2023-01-25T07:12:51.665Z,5.38
2023-01-25T07:18:01.160Z,5.32
2023-01-25T07:23:09.259Z,5.35
2023-01-25T07:28:12.392Z,5.32
2023-01-25T07:33:16.939Z,5.31
2023-01-25T07:38:20.083Z,5.32
2023-01-25T07:43:23.255Z,5.40
2023-01-25T07:48:27.897Z,5.35
2023-01-25T07:53:31.043Z,5.35
2023-01-25T07:58:34.255Z,5.33
2023-01-25T08:03:39.313Z,5.29
2023-01-25T08:08:44.799Z,5.26
2023-01-25T08:13:49.719Z,5.24
2023-01-25T08:18:56.147Z,5.24
2023-01-25T08:23:59.929Z,5.21
2023-01-25T08:29:03.361Z,5.35
2023-01-25T08:34:08.819Z,5.37
2023-01-25T08:39:12.952Z,5.33
2023-01-25T08:44:16.084Z,5.39
2023-01-25T08:49:20.799Z,5.54
2023-01-25T08:54:24.550Z,5.75
2023-01-25T08:59:27.953Z,5.94
2023-01-25T09:04:32.530Z,6.10
2023-01-25T09:09:35.664Z,6.15
2023-01-25T09:14:40.414Z,6.26
2023-01-25T09:19:45.944Z,6.48
2023-01-25T09:24:52.370Z,6.42
2023-01-25T09:30:02.132Z,6.50
2023-01-25T09:35:08.363Z,6.63
2023-01-25T09:40:20.368Z,6.72
2023-01-25T09:45:32.096Z,6.68
2023-01-25T09:50:39.558Z,6.99
2023-01-25T09:55:43.279Z,7.06
2023-01-25T10:00:51.567Z,7.12
2023-01-25T10:06:01.158Z,7.22
2023-01-25T10:11:15.053Z,7.24
2023-01-25T10:16:28.476Z,7.37
2023-01-25T10:21:39.001Z,7.46
2023-01-25T10:26:46.588Z,7.56
2023-01-25T10:31:53.384Z,7.62
2023-01-25T10:36:59.487Z,7.65
2023-01-25T10:42:08.044Z,7.69
2023-01-25T10:47:22.879Z,7.77
2023-01-25T10:52:29.332Z,7.98
2023-01-25T10:57:32.795Z,7.82
2023-01-25T11:02:45.303Z,7.95
2023-01-25T11:07:50.295Z,7.92
2023-01-25T11:13:19.732Z,8.03
2023-01-25T11:18:25.352Z,8.15
2023-01-25T11:23:29.927Z,8.21
2023-01-25T11:28:33.088Z,8.30
2023-01-25T11:33:36.256Z,8.58
2023-01-25T11:38:49.537Z,8.49
2023-01-25T11:44:20.496Z,8.48
2023-01-25T11:49:35.951Z,8.55
2023-01-25T11:54:51.008Z,8.66
2023-01-25T12:00:11.242Z,8.77
2023-01-25T12:05:29.642Z,8.62
2023-01-25T12:10:46.043Z,8.81
2023-01-25T12:16:13.098Z,9.01
2023-01-25T12:21:31.843Z,9.00
2023-01-25T12:26:49.623Z,8.97
2023-01-25T12:31:58.396Z,9.19
2023-01-25T12:37:07.280Z,9.29
2023-01-25T12:42:20.035Z,9.39
2023-01-25T12:47:33.455Z,9.40
2023-01-25T12:52:40.319Z,9.49
2023-01-25T12:57:54.424Z,9.43
2023-01-25T13:03:29.425Z,9.45
2023-01-25T13:08:43.662Z,9.56
2023-01-25T13:13:48.389Z,9.82
2023-01-25T13:18:51.700Z,9.88
2023-01-25T13:24:24.262Z,9.99
2023-01-25T13:29:47.340Z,10.05
2023-01-25T13:35:00.701Z,10.21
2023-01-25T13:40:06.417Z,10.26
2023-01-25T13:45:20.032Z,10.63
2023-01-25T13:50:27.046Z,11.86
2023-01-25T13:55:38.821Z,13.12
2023-01-25T14:00:51.550Z,13.41
2023-01-25T14:05:57.709Z,14.23
2023-01-25T14:11:01.107Z,14.48
2023-01-25T14:16:11.678Z,15.28
2023-01-25T14:21:18.777Z,15.55
2023-01-25T14:26:25.184Z,16.27
2023-01-25T14:31:34.940Z,15.99
2023-01-25T14:36:38.179Z,15.99
2023-01-25T14:41:51.702Z,15.62
2023-01-25T14:47:30.160Z,16.80
2023-01-25T14:52:33.335Z,16.31
2023-01-25T14:57:39.311Z,15.78
2023-01-25T15:02:48.385Z,15.60
2023-01-25T15:07:54.022Z,15.77
2023-01-25T15:13:11.608Z,15.50
2023-01-25T15:18:45.198Z,15.17
2023-01-25T15:23:50.355Z,14.89
2023-01-25T15:28:55.061Z,14.82
2023-01-25T15:34:00.195Z,14.75
2023-01-25T15:39:03.453Z,14.97
2023-01-25T15:44:07.247Z,14.67
2023-01-25T15:49:18.266Z,14.69
2023-01-25T15:54:21.472Z,15.16
2023-01-25T15:59:25.226Z,14.80
2023-01-25T16:04:29.785Z,14.26
2023-01-25T16:09:33.436Z,14.20
2023-01-25T16:14:36.653Z,13.98
2023-01-25T16:19:41.174Z,14.15
2023-01-25T16:24:44.783Z,14.46
2023-01-25T16:29:48.252Z,14.15
2023-01-25T16:34:52.866Z,13.88
2023-01-25T16:39:56.034Z,13.64
2023-01-25T16:44:59.275Z,13.20
2023-01-25T16:50:03.860Z,13.10
2023-01-25T16:55:07.932Z,13.11
2023-01-25T17:00:14.426Z,12.89
2023-01-25T17:05:19.216Z,12.90
2023-01-25T17:10:22.424Z,12.52
2023-01-25T17:15:25.739Z,12.04
2023-01-25T17:20:30.304Z,11.61
2023-01-25T17:25:35.591Z,11.37
2023-01-25T17:30:41.584Z,11.18
2023-01-25T17:35:46.340Z,11.05
2023-01-25T17:40:49.754Z,10.77
2023-01-25T17:45:52.939Z,10.50
2023-01-25T17:51:04.302Z,10.16
2023-01-25T17:56:08.631Z,9.95
2023-01-25T18:01:14.409Z,9.87
2023-01-25T18:06:21.416Z,9.67
2023-01-25T18:11:27.395Z,9.41
2023-01-25T18:16:33.233Z,9.34
2023-01-25T18:21:38.865Z,9.13
2023-01-25T18:26:42.826Z,8.72
2023-01-25T18:31:46.473Z,8.64
2023-01-25T18:36:51.070Z,8.78
2023-01-25T18:41:54.318Z,8.65
2023-01-25T18:46:57.702Z,8.35
2023-01-25T18:52:11.316Z,8.15
2023-01-25T18:57:15.941Z,8.04
2023-01-25T19:02:20.126Z,8.09
2023-01-25T19:07:24.777Z,8.16
2023-01-25T19:12:27.984Z,8.07
2023-01-25T19:17:32.915Z,8.12
2023-01-25T19:22:37.546Z,7.96
2023-01-25T19:27:40.788Z,7.91
2023-01-25T19:32:43.987Z,7.63
2023-01-25T19:37:48.715Z,7.39
2023-01-25T19:42:51.976Z,7.40
2023-01-25T19:47:55.466Z,7.44
2023-01-25T19:53:01.543Z,7.32
2023-01-25T19:58:04.806Z,7.38
2023-01-25T20:03:16.299Z,7.33
2023-01-25T20:08:21.388Z,7.34
2023-01-25T20:13:24.638Z,7.16
2023-01-25T20:18:28.261Z,7.03
2023-01-25T20:23:35.275Z,6.84
2023-01-25T20:28:39.107Z,6.73
2023-01-25T20:33:42.330Z,6.68
2023-01-25T20:38:47.317Z,6.85
2023-01-25T20:43:52.215Z,6.75
2023-01-25T20:48:55.897Z,6.83
2023-01-25T20:54:00.541Z,6.79
2023-01-25T20:59:03.869Z,6.57
2023-01-25T21:04:09.853Z,6.53
2023-01-25T21:09:14.494Z,6.48
2023-01-25T21:14:19.784Z,6.37
2023-01-25T21:19:23.050Z,6.11
2023-01-25T21:24:27.731Z,6.06
2023-01-25T21:29:30.998Z,6.13
2023-01-25T21:34:34.280Z,5.85
2023-01-25T21:39:38.892Z,5.78
2023-01-25T21:44:59.587Z,5.90
2023-01-25T21:50:20.266Z,5.97
2023-01-25T21:55:24.975Z,5.73
2023-01-25T22:00:28.301Z,5.50
2023-01-25T22:05:31.521Z,5.52
2023-01-25T22:10:36.163Z,5.45
2023-01-25T22:15:39.433Z,5.40
2023-01-25T22:20:42.690Z,5.49
2023-01-25T22:25:48.998Z,5.54
2023-01-25T22:30:52.275Z,5.51
2023-01-25T22:35:55.567Z,5.34
2023-01-25T22:41:04.968Z,5.56
2023-01-25T22:46:09.867Z,5.50
2023-01-25T22:51:15.293Z,5.40
2023-01-25T22:56:20.777Z,5.36
2023-01-25T23:01:25.810Z,5.18
2023-01-25T23:06:31.271Z,4.93
2023-01-25T23:11:37.802Z,4.96
2023-01-25T23:16:41.106Z,4.90
2023-01-25T23:21:44.375Z,4.73
2023-01-25T23:26:48.960Z,4.70
2023-01-25T23:31:52.210Z,4.66
2023-01-25T23:36:55.578Z,4.67
2023-01-25T23:42:00.207Z,4.69
2023-01-25T23:47:03.447Z,4.58
2023-01-25T23:52:06.746Z,4.53
2023-01-25T23:57:11.404Z,4.39
